createdAt,value
2019-06-07T00:01:16.355Z,101308.34
2019-06-07T00:03:55.430Z,101305.30
2019-06-07T00:06:32.534Z,101305.30
2019-06-07T00:09:02.774Z,101309.95
2019-06-07T00:11:32.544Z,101306.80
2019-06-07T00:14:02.558Z,101301.63
2019-06-07T00:16:30.905Z,101304.64
2019-06-07T00:19:02.375Z,101300.32
2019-06-07T00:22:12.763Z,101302.84
2019-06-07T00:24:00.938Z,101305.36
2019-06-07T00:26:30.317Z,101299.01
2019-06-07T00:28:58.730Z,101293.11
2019-06-07T00:31:30.624Z,101302.70
2019-06-07T00:33:59.035Z,101305.06
2019-06-07T00:36:30.062Z,101294.37
2019-06-07T00:39:01.917Z,101294.69
2019-06-07T00:41:34.127Z,101299.39
2019-06-07T00:44:02.542Z,101293.41
2019-06-07T00:46:34.816Z,101291.72
2019-06-07T00:49:05.870Z,101295.08
2019-06-07T00:51:50.174Z,101301.23
2019-06-07T00:54:12.953Z,101311.77
2019-06-07T00:56:42.405Z,101320.12
2019-06-07T00:59:14.651Z,101322.44
2019-06-07T01:01:45.279Z,101322.80
2019-06-07T01:04:17.746Z,101313.09
2019-06-07T01:06:45.901Z,101308.92
2019-06-07T01:09:15.322Z,101298.75
2019-06-07T01:11:48.573Z,101301.07
2019-06-07T01:14:24.067Z,101309.11
2019-06-07T01:16:59.372Z,101308.09
2019-06-07T01:19:27.552Z,101305.91
2019-06-07T01:21:56.273Z,101305.24
2019-06-07T01:24:38.476Z,101305.78
2019-06-07T01:27:10.103Z,101295.57
2019-06-07T01:29:38.509Z,101290.75
2019-06-07T01:32:10.677Z,101289.41
2019-06-07T01:34:45.450Z,101291.70
2019-06-07T01:37:16.855Z,101293.69
2019-06-07T01:39:48.431Z,101292.00
2019-06-07T01:42:18.172Z,101295.19
2019-06-07T01:44:51.235Z,101292.69
2019-06-07T01:47:21.195Z,101297.86
2019-06-07T01:49:52.974Z,101301.23
2019-06-07T01:52:26.871Z,101301.71
2019-06-07T01:54:59.325Z,101308.08
2019-06-07T01:57:45.473Z,101308.23
2019-06-07T02:00:11.996Z,101308.23
2019-06-07T02:02:40.406Z,101300.73
2019-06-07T02:05:10.146Z,101291.03
2019-06-07T02:07:39.699Z,101285.66
2019-06-07T02:10:09.349Z,101280.13
2019-06-07T02:12:43.454Z,101278.48
2019-06-07T02:15:13.715Z,101278.50
2019-06-07T02:17:43.025Z,101277.66
2019-06-07T02:20:22.940Z,101275.48
2019-06-07T02:22:49.734Z,101278.64
2019-06-07T02:25:42.262Z,101279.83
2019-06-07T02:28:25.971Z,101284.84
2019-06-07T02:30:53.226Z,101274.63
2019-06-07T02:32:58.017Z,101266.97
2019-06-07T02:35:34.877Z,101267.97
2019-06-07T02:37:59.227Z,101254.93
2019-06-07T02:40:36.972Z,101246.45
2019-06-07T02:43:05.396Z,101247.91
2019-06-07T02:45:42.144Z,101257.11
2019-06-07T02:48:08.309Z,101269.66
2019-06-07T02:50:43.980Z,101270.48
2019-06-07T02:53:12.401Z,101261.45
2019-06-07T02:56:26.892Z,101261.97
2019-06-07T02:58:21.518Z,101274.34
2019-06-07T03:01:08.880Z,101272.99
2019-06-07T03:03:22.425Z,101274.88
2019-06-07T03:05:52.068Z,101275.69
2019-06-07T03:08:20.538Z,101273.51
2019-06-07T03:10:53.857Z,101272.03
2019-06-07T03:13:28.927Z,101266.16
2019-06-07T03:16:03.524Z,101269.85
2019-06-07T03:18:51.799Z,101266.69
2019-06-07T03:21:31.488Z,101267.20
2019-06-07T03:24:03.596Z,101273.57
2019-06-07T03:26:45.754Z,101272.38
2019-06-07T03:29:03.628Z,101270.38
2019-06-07T03:31:45.947Z,101271.22
2019-06-07T03:34:09.359Z,101270.06
2019-06-07T03:36:41.558Z,101269.89
2019-06-07T03:39:09.987Z,101271.06
2019-06-07T03:42:04.736Z,101272.73
2019-06-07T03:44:12.637Z,101277.73
2019-06-07T03:46:45.356Z,101015.83
2019-06-07T03:49:17.957Z,101283.75
2019-06-07T03:51:46.351Z,101290.59
2019-06-07T03:54:17.470Z,101290.75
2019-06-07T03:56:48.223Z,101291.92
2019-06-07T03:59:16.663Z,101284.42
2019-06-07T04:01:47.842Z,101285.42
2019-06-07T04:04:16.258Z,101292.44
2019-06-07T04:06:44.695Z,101284.41
2019-06-07T04:09:18.374Z,101281.73
2019-06-07T04:11:46.777Z,101290.75
2019-06-07T04:14:16.234Z,101282.73
2019-06-07T04:16:45.172Z,101285.10
2019-06-07T04:19:18.219Z,101286.09
2019-06-07T04:21:47.574Z,101292.44
2019-06-07T04:24:18.489Z,101292.42
2019-06-07T04:26:50.681Z,101291.58
2019-06-07T04:29:56.695Z,101300.59
2019-06-07T04:31:56.883Z,101298.08
2019-06-07T04:34:25.300Z,101292.75
2019-06-07T04:36:59.740Z,101292.56
2019-06-07T04:39:35.818Z,101287.86
2019-06-07T04:42:06.003Z,101284.99
2019-06-07T04:44:42.574Z,101288.34
2019-06-07T04:47:17.287Z,101280.28
2019-06-07T04:49:48.536Z,101279.23
2019-06-07T04:52:19.517Z,101281.05
2019-06-07T04:54:51.041Z,101296.02
2019-06-07T04:57:19.449Z,101289.36
2019-06-07T05:00:11.736Z,101286.68
2019-06-07T05:02:23.323Z,101293.85
2019-06-07T05:04:52.899Z,101292.05
2019-06-07T05:07:22.341Z,101288.13
2019-06-07T05:09:53.176Z,101285.27
2019-06-07T05:12:21.580Z,101285.63
2019-06-07T05:14:49.997Z,101279.06
2019-06-07T05:17:20.976Z,101276.94
2019-06-07T05:19:54.020Z,101281.61
2019-06-07T05:22:31.664Z,101284.33
2019-06-07T05:25:01.634Z,101296.17
2019-06-07T05:27:38.588Z,101294.95
2019-06-07T05:30:56.954Z,101293.08
2019-06-07T05:32:50.966Z,101302.87
2019-06-07T05:35:19.521Z,101299.05
2019-06-07T05:37:47.888Z,101282.98
2019-06-07T05:40:24.608Z,101278.84
2019-06-07T05:42:58.386Z,101272.53
2019-06-07T05:45:39.131Z,101277.73
2019-06-07T05:48:12.243Z,101281.65
2019-06-07T05:50:55.430Z,101288.43
2019-06-07T05:53:14.874Z,101283.41
2019-06-07T05:55:51.304Z,101289.47
2019-06-07T05:58:22.854Z,101280.52
2019-06-07T06:00:54.281Z,101280.52
2019-06-07T06:03:29.138Z,101276.43
2019-06-07T06:06:01.956Z,101275.88
2019-06-07T06:08:36.671Z,101283.05
2019-06-07T06:11:10.922Z,101289.48
2019-06-07T06:14:04.669Z,101296.84
2019-06-07T06:16:14.276Z,101306.52
2019-06-07T06:18:51.101Z,101310.53
2019-06-07T06:21:45.233Z,101314.45
2019-06-07T06:24:17.307Z,101318.77
2019-06-07T06:26:57.042Z,101321.97
2019-06-07T06:29:26.014Z,101324.58
2019-06-07T06:32:40.541Z,101318.88
2019-06-07T06:34:46.959Z,101307.52
2019-06-07T06:37:24.793Z,101310.69
2019-06-07T06:39:52.021Z,101315.88
2019-06-07T06:42:21.513Z,101319.75
2019-06-07T06:44:56.364Z,101307.91
2019-06-07T06:47:32.633Z,101300.03
2019-06-07T06:50:05.383Z,101301.47
2019-06-07T06:52:46.231Z,101301.02
2019-06-07T06:55:15.450Z,101300.66
2019-06-07T06:57:43.844Z,101304.73
2019-06-07T07:00:21.544Z,101304.05
2019-06-07T07:03:40.690Z,101298.11
2019-06-07T07:05:31.918Z,101298.72
2019-06-07T07:08:00.499Z,101303.47
2019-06-07T07:10:43.311Z,101303.77
2019-06-07T07:13:12.430Z,101307.70
2019-06-07T07:15:42.813Z,101310.59
2019-06-07T07:18:13.773Z,101300.22
2019-06-07T07:20:43.522Z,101307.95
2019-06-07T07:23:12.299Z,101303.94
2019-06-07T07:25:46.041Z,101298.72
2019-06-07T07:28:14.257Z,101295.58
2019-06-07T07:30:55.380Z,101289.43
2019-06-07T07:34:20.594Z,101284.34
2019-06-07T07:36:23.272Z,101290.08
2019-06-07T07:38:48.977Z,101281.87
2019-06-07T07:41:15.627Z,101284.22
2019-06-07T07:43:45.702Z,101280.45
2019-06-07T07:46:29.006Z,101274.34
2019-06-07T07:48:54.705Z,101280.47
2019-06-07T07:51:27.807Z,101282.05
2019-06-07T07:54:10.223Z,101279.42
2019-06-07T07:56:27.460Z,101279.97
2019-06-07T07:59:01.469Z,101277.83
2019-06-07T08:01:28.679Z,101282.02
2019-06-07T08:04:04.720Z,101282.49
2019-06-07T08:06:35.574Z,101282.22
2019-06-07T08:09:05.652Z,101290.42
2019-06-07T08:11:35.117Z,101294.20
2019-06-07T08:14:08.104Z,101292.70
2019-06-07T08:16:37.513Z,101284.16
2019-06-07T08:19:18.259Z,101282.22
2019-06-07T08:21:50.608Z,101276.91
2019-06-07T08:24:19.994Z,101285.30
2019-06-07T08:27:12.306Z,101295.63
2019-06-07T08:29:22.350Z,101285.94
2019-06-07T08:31:58.710Z,101288.45
2019-06-07T08:34:29.903Z,101283.72
2019-06-07T08:37:00.119Z,101290.27
2019-06-07T08:39:27.500Z,101288.76
2019-06-07T08:42:14.118Z,101282.84
2019-06-07T08:44:28.286Z,101274.44
2019-06-07T08:47:16.675Z,101269.03
2019-06-07T08:49:26.847Z,101266.16
2019-06-07T08:52:09.729Z,101269.64
2019-06-07T08:54:29.483Z,101269.34
2019-06-07T08:57:17.986Z,101272.59
2019-06-07T08:59:28.043Z,101266.78
2019-06-07T09:02:04.223Z,101254.87
2019-06-07T09:04:36.963Z,101259.12
2019-06-07T09:07:19.464Z,101263.55
2019-06-07T09:09:47.521Z,101256.41
2019-06-07T09:12:16.023Z,101256.41
2019-06-07T09:14:59.582Z,101253.75
2019-06-07T09:17:18.385Z,101255.11
2019-06-07T09:19:47.058Z,101251.20
2019-06-07T09:22:17.864Z,101251.64
2019-06-07T09:24:46.307Z,101247.73
2019-06-07T09:27:15.335Z,101247.98
2019-06-07T09:29:44.589Z,101247.48
2019-06-07T09:32:18.694Z,101244.44
2019-06-07T09:34:47.256Z,101243.87
2019-06-07T09:39:54.386Z,101243.84
2019-06-07T09:42:26.935Z,101242.84
2019-06-07T09:44:57.021Z,101238.80
2019-06-07T09:47:32.824Z,101228.23
2019-06-07T09:50:08.303Z,101227.88
2019-06-07T09:52:29.750Z,101224.91
2019-06-07T09:55:09.362Z,101219.83
2019-06-07T09:57:34.047Z,101219.38
2019-06-07T10:00:38.183Z,101222.50
2019-06-07T10:02:35.770Z,101216.43
2019-06-07T10:05:12.178Z,101205.47
2019-06-07T10:07:59.181Z,101213.26
2019-06-07T10:12:45.929Z,101204.02
2019-06-07T10:15:14.489Z,101200.74
2019-06-07T10:17:42.920Z,101194.02
2019-06-07T10:20:13.076Z,101190.36
2019-06-07T10:22:43.890Z,101181.77
2019-06-07T10:25:12.467Z,101178.56
2019-06-07T10:27:43.391Z,101174.58
2019-06-07T10:30:13.195Z,101171.92
2019-06-07T10:32:52.078Z,101176.69
2019-06-07T10:35:18.741Z,101180.88
2019-06-07T10:37:53.289Z,101185.98
2019-06-07T10:40:25.424Z,101175.39
2019-06-07T10:42:58.689Z,101172.56
2019-06-07T10:45:27.080Z,101169.47
2019-06-07T10:47:55.497Z,101168.16
2019-06-07T10:50:23.986Z,101168.75
2019-06-07T10:53:10.713Z,101161.66
2019-06-07T10:55:40.293Z,101160.77
2019-06-07T10:58:09.199Z,101171.69
2019-06-07T11:00:37.693Z,101167.91
2019-06-07T11:03:11.839Z,101162.55
2019-06-07T11:05:41.381Z,101163.84
2019-06-07T11:08:10.242Z,101156.33
2019-06-07T11:10:38.786Z,101159.80
2019-06-07T11:13:08.245Z,101155.35
2019-06-07T11:15:36.860Z,101157.14
2019-06-07T11:18:06.377Z,101160.81
2019-06-07T11:20:35.594Z,101164.09
2019-06-07T11:23:10.121Z,101145.86
2019-06-07T11:25:42.037Z,101147.62
2019-06-07T11:28:18.711Z,101143.13
2019-06-07T11:30:52.200Z,101143.95
2019-06-07T11:33:24.993Z,101142.89
2019-06-07T11:35:54.321Z,101141.44
2019-06-07T11:38:26.613Z,101143.17
2019-06-07T11:41:00.915Z,101134.91
2019-06-07T11:43:33.572Z,101136.48
2019-06-07T11:46:01.986Z,101125.34
2019-06-07T11:48:30.466Z,101115.66
2019-06-07T11:51:08.636Z,101126.16
2019-06-07T11:53:56.197Z,101115.38
2019-06-07T11:56:25.561Z,101110.74
2019-06-07T11:58:54.951Z,101103.12
2019-06-07T12:01:23.380Z,101100.84
2019-06-07T12:03:58.778Z,101097.33
2019-06-07T12:06:21.961Z,101089.30
2019-06-07T12:08:50.406Z,101092.13
2019-06-07T12:11:23.071Z,101080.84
2019-06-07T12:13:55.257Z,101074.27
2019-06-07T12:16:27.698Z,101075.38
2019-06-07T12:18:55.309Z,101071.93
2019-06-07T12:23:52.558Z,101057.30
2019-06-07T12:26:38.323Z,101055.86
2019-06-07T12:29:06.750Z,101050.84
2019-06-07T12:31:43.747Z,101040.40
2019-06-07T12:34:25.254Z,101037.00
2019-06-07T12:36:59.107Z,101027.27
2019-06-07T12:39:34.335Z,101018.55
2019-06-07T12:42:02.773Z,101023.34
2019-06-07T12:44:34.696Z,101023.81
2019-06-07T12:47:09.456Z,101014.28
2019-06-07T12:49:37.870Z,101011.67
2019-06-07T12:52:07.918Z,101002.91
2019-06-07T12:54:40.432Z,101003.64
2019-06-07T12:57:08.835Z,101004.92
2019-06-07T12:59:41.042Z,101003.20
2019-06-07T13:02:09.689Z,100995.75
2019-06-07T13:04:38.033Z,101005.98
2019-06-07T13:07:06.678Z,101004.08
2019-06-07T13:09:51.809Z,101006.12
2019-06-07T13:12:24.489Z,100993.14
2019-06-07T13:14:52.927Z,100993.77
2019-06-07T13:17:22.277Z,100992.55
2019-06-07T13:19:53.413Z,100995.26
2019-06-07T13:22:22.306Z,100986.81
2019-06-07T13:24:50.875Z,100982.42
2019-06-07T13:27:20.439Z,100986.30
2019-06-07T13:29:51.951Z,100985.94
2019-06-07T13:32:28.162Z,100974.06
2019-06-07T13:35:20.475Z,100978.18
2019-06-07T13:37:59.817Z,100981.22
2019-06-07T13:40:33.856Z,100979.63
2019-06-07T13:43:17.260Z,100969.70
2019-06-07T13:45:49.460Z,100973.34
2019-06-07T13:48:32.493Z,100969.63
2019-06-07T13:51:12.711Z,100963.95
2019-06-07T13:53:53.560Z,100960.94
2019-06-07T13:56:37.098Z,100955.79
2019-06-07T13:59:09.528Z,100958.47
2019-06-07T14:01:47.374Z,100949.13
2019-06-07T14:04:24.890Z,100933.42
2019-06-07T14:07:08.974Z,100931.53
2019-06-07T14:09:29.870Z,100931.02
2019-06-07T14:12:06.541Z,100936.62
2019-06-07T14:14:39.633Z,100932.51
2019-06-07T14:20:09.832Z,100917.96
2019-06-07T14:22:48.916Z,100919.94
2019-06-07T14:25:25.131Z,100909.23
2019-06-07T14:27:57.087Z,100902.16
2019-06-07T14:30:33.389Z,100900.30
2019-06-07T14:33:09.483Z,100898.94
2019-06-07T14:35:51.618Z,100895.78
2019-06-07T14:38:24.900Z,100891.08
2019-06-07T14:40:55.769Z,100890.09
2019-06-07T14:43:25.113Z,100890.95
2019-06-07T14:45:56.776Z,100887.86
2019-06-07T14:48:36.788Z,100887.89
2019-06-07T14:51:05.448Z,100883.97
2019-06-07T14:53:36.402Z,100886.01
2019-06-07T14:56:14.174Z,100884.31
2019-06-07T15:02:50.174Z,100882.75
2019-06-07T15:10:35.232Z,100879.22
2019-06-07T15:19:16.341Z,100861.49
2019-06-07T15:23:39.358Z,100850.67
2019-06-07T15:25:31.179Z,100842.72
2019-06-07T15:28:24.345Z,100835.06
2019-06-07T15:30:52.775Z,100823.39
2019-06-07T15:33:24.276Z,100824.34
2019-06-07T15:36:19.829Z,100814.38
2019-06-07T15:38:47.931Z,100822.30
2019-06-07T15:41:16.324Z,100802.85
2019-06-07T15:43:44.724Z,100802.33
2019-06-07T15:46:42.442Z,100800.61
2019-06-07T15:49:12.028Z,100799.66
2019-06-07T15:51:40.976Z,100795.17
2019-06-07T15:54:09.707Z,100795.70
2019-06-07T15:56:39.176Z,100793.60
2019-06-07T15:59:08.670Z,100788.61
2019-06-07T16:01:37.674Z,100795.11
2019-06-07T16:04:06.185Z,100786.62
2019-06-07T16:06:43.369Z,100781.48
2019-06-07T16:09:08.544Z,100775.95
2019-06-07T16:11:37.294Z,100775.95
2019-06-07T16:14:09.868Z,100771.16
2019-06-07T16:16:43.411Z,100763.59
2019-06-07T16:19:11.916Z,100761.50
2019-06-07T16:21:41.482Z,100762.37
2019-06-07T16:24:11.986Z,100761.00
2019-06-07T16:27:01.615Z,100762.15
2019-06-07T16:29:34.572Z,100759.03
2019-06-07T16:32:06.567Z,100753.02
2019-06-07T16:34:35.092Z,100754.81
2019-06-07T16:37:03.642Z,100749.80
2019-06-07T16:39:33.061Z,100747.58
2019-06-07T16:42:04.654Z,100737.53
2019-06-07T16:44:33.129Z,100734.19
2019-06-07T16:47:04.384Z,100733.98
2019-06-07T16:49:32.935Z,100731.19
2019-06-07T16:52:04.233Z,100725.50
2019-06-07T16:54:35.640Z,100725.38
2019-06-07T16:57:19.945Z,100730.33
2019-06-07T16:59:51.187Z,100731.21
2019-06-07T17:02:21.804Z,100727.17
2019-06-07T17:04:51.301Z,100732.31
2019-06-07T17:07:24.679Z,100730.94
2019-06-07T17:09:56.869Z,100734.05
2019-06-07T17:12:28.172Z,100733.06
2019-06-07T17:15:07.735Z,100732.00
2019-06-07T17:17:41.019Z,100730.55
2019-06-07T17:20:24.601Z,100727.90
2019-06-07T17:22:49.784Z,100721.88
2019-06-07T17:25:21.382Z,100726.86
2019-06-07T17:27:59.126Z,100716.33
2019-06-07T17:30:27.606Z,100712.56
2019-06-07T17:32:59.440Z,100720.02
2019-06-07T17:35:32.107Z,100711.20
2019-06-07T17:38:04.955Z,100709.52
2019-06-07T17:40:33.685Z,100718.75
2019-06-07T17:43:02.225Z,100716.38
2019-06-07T17:45:35.558Z,100718.45
2019-06-07T17:48:02.778Z,100715.74
2019-06-07T17:50:31.474Z,100709.06
2019-06-07T17:53:02.837Z,100706.61
2019-06-07T17:55:31.612Z,100706.22
2019-06-07T17:58:02.742Z,100711.95
2019-06-07T18:00:53.095Z,100711.95
2019-06-07T18:03:28.643Z,100704.00
2019-06-07T18:06:00.799Z,100704.50
2019-06-07T18:08:30.429Z,100706.97
2019-06-07T18:11:03.565Z,100698.30
2019-06-07T18:13:32.125Z,100701.22
2019-06-07T18:16:00.550Z,100697.59
2019-06-07T18:18:28.950Z,100698.94
2019-06-07T18:21:00.022Z,100699.10
2019-06-07T18:23:34.519Z,100698.92
2019-06-07T18:26:03.939Z,100699.80
2019-06-07T18:28:32.358Z,100699.41
2019-06-07T18:31:03.538Z,100701.63
2019-06-07T18:33:38.283Z,100705.20
2019-06-07T18:36:06.691Z,100706.63
2019-06-07T18:38:35.111Z,100707.44
2019-06-07T18:41:03.523Z,100710.38
2019-06-07T18:43:31.928Z,100714.53
2019-06-07T18:46:00.410Z,100718.72
2019-06-07T18:48:33.071Z,100724.67
2019-06-07T18:51:07.502Z,100717.42
2019-06-07T18:53:39.431Z,100718.66
2019-06-07T18:56:18.906Z,100718.09
2019-06-07T18:58:55.311Z,100707.23
2019-06-07T19:01:30.064Z,100713.23
2019-06-07T19:04:02.956Z,100706.42
2019-06-07T19:06:32.348Z,100706.73
2019-06-07T19:09:01.662Z,100696.90
2019-06-07T19:11:37.817Z,100693.06
2019-06-07T19:14:11.024Z,100701.96
2019-06-07T19:16:40.905Z,100700.22
2019-06-07T19:19:14.811Z,100697.29
2019-06-07T19:21:43.430Z,100700.31
2019-06-07T19:24:14.746Z,100710.13
2019-06-07T19:26:47.885Z,100715.25
2019-06-07T19:29:24.420Z,100724.49
2019-06-07T19:31:52.993Z,100722.33
2019-06-07T19:34:31.248Z,100724.75
2019-06-07T19:37:02.193Z,100720.86
2019-06-07T19:39:37.108Z,100722.47
2019-06-07T19:42:09.931Z,100723.53
2019-06-07T19:44:52.069Z,100737.84
2019-06-07T19:47:12.571Z,100737.47
2019-06-07T19:49:46.522Z,100741.34
2019-06-07T19:52:23.959Z,100752.02
2019-06-07T19:54:53.733Z,100752.27
2019-06-07T19:57:22.299Z,100754.47
2019-06-07T19:59:50.711Z,100753.52
2019-06-07T20:02:19.136Z,100735.73
2019-06-07T20:04:48.473Z,100735.73
2019-06-07T20:07:17.001Z,100726.20
2019-06-07T20:09:46.520Z,100719.63
2019-06-07T20:12:20.903Z,100713.47
2019-06-07T20:14:49.319Z,100711.16
2019-06-07T20:17:19.812Z,100710.55
2019-06-07T20:19:49.345Z,100724.95
2019-06-07T20:22:19.117Z,100739.44
2019-06-07T20:25:07.242Z,100739.74
2019-06-07T20:27:37.794Z,100741.41
2019-06-07T20:30:08.581Z,100732.14
2019-06-07T20:32:37.087Z,100745.17
2019-06-07T20:35:06.334Z,100749.30
2019-06-07T20:37:34.742Z,100757.41
2019-06-07T20:40:22.950Z,100769.48
2019-06-07T20:42:41.383Z,100773.42
2019-06-07T20:45:14.906Z,100778.48
2019-06-07T20:47:45.816Z,100791.12
2019-06-07T20:50:20.093Z,100789.43
2019-06-07T20:52:48.514Z,100795.34
2019-06-07T20:55:17.256Z,100795.78
2019-06-07T20:57:45.714Z,100796.28
2019-06-07T21:00:21.971Z,100801.66
2019-06-07T21:02:49.824Z,100801.56
2019-06-07T21:05:18.233Z,100795.56
2019-06-07T21:07:49.097Z,100783.99
2019-06-07T21:10:18.676Z,100783.67
2019-06-07T21:12:49.975Z,100775.52
2019-06-07T21:15:26.391Z,100774.98
2019-06-07T21:17:57.372Z,100757.72
2019-06-07T21:20:33.873Z,100762.56
2019-06-07T21:23:02.795Z,100753.19
2019-06-07T21:25:31.208Z,100748.94
2019-06-07T21:28:00.915Z,100756.06
2019-06-07T21:30:34.151Z,100758.66
2019-06-07T21:33:03.591Z,100762.69
2019-06-07T21:35:33.771Z,100757.72
2019-06-07T21:38:09.842Z,100756.56
2019-06-07T21:40:39.440Z,100751.31
2019-06-07T21:43:08.735Z,100761.00
2019-06-07T21:45:41.340Z,100774.09
2019-06-07T21:48:11.605Z,100810.32
2019-06-07T21:50:44.696Z,100838.26
2019-06-07T21:53:13.095Z,100835.38
2019-06-07T21:55:43.462Z,100834.34
2019-06-07T21:58:14.582Z,100857.93
2019-06-07T22:01:04.028Z,100867.97
2019-06-07T22:03:35.127Z,100877.30
2019-06-07T22:06:03.553Z,100886.70
2019-06-07T22:08:34.513Z,100895.69
2019-06-07T22:11:04.036Z,100898.69
2019-06-07T22:13:37.475Z,100894.96
2019-06-07T22:16:27.957Z,100913.70
2019-06-07T22:18:48.390Z,100926.30
2019-06-07T22:21:16.800Z,100937.48
2019-06-07T22:23:48.703Z,100942.35
2019-06-07T22:26:18.126Z,100943.90
2019-06-07T22:28:46.540Z,100945.64
2019-06-07T22:31:15.091Z,100939.85
2019-06-07T22:33:43.464Z,100932.60
2019-06-07T22:36:13.184Z,100935.24
2019-06-07T22:38:43.559Z,100953.30
2019-06-07T22:41:15.882Z,100940.77
2019-06-07T22:43:46.588Z,100934.48
2019-06-07T22:46:15.127Z,100931.48
2019-06-07T22:48:43.600Z,100927.98
2019-06-07T22:51:13.322Z,100929.30
2019-06-07T22:53:46.058Z,100930.77
2019-06-07T22:56:16.134Z,100935.92
2019-06-07T22:58:44.522Z,100925.19
2019-06-07T23:01:12.930Z,100918.45
2019-06-07T23:03:46.225Z,100904.91
2019-06-07T23:06:14.781Z,100888.97
2019-06-07T23:08:43.236Z,100885.22
2019-06-07T23:11:13.223Z,100885.31
2019-06-07T23:13:41.782Z,100880.15
2019-06-07T23:16:17.722Z,100867.10
2019-06-07T23:18:44.464Z,100858.84
2019-06-07T23:21:13.798Z,100849.02
2019-06-07T23:23:42.301Z,100840.01
2019-06-07T23:26:12.094Z,100827.81
2019-06-07T23:28:47.026Z,100820.67
2019-06-07T23:31:18.565Z,100827.99
2019-06-07T23:33:47.071Z,100838.45
2019-06-07T23:36:15.493Z,100850.86
2019-06-07T23:38:44.914Z,100851.30
2019-06-07T23:41:13.335Z,100845.73
2019-06-07T23:43:41.744Z,100854.83
2019-06-07T23:46:11.426Z,100842.11
2019-06-07T23:48:41.928Z,100852.55
2019-06-07T23:51:11.434Z,100870.25
2019-06-07T23:53:39.947Z,100834.98
2019-06-07T23:56:08.373Z,100831.45
2019-06-07T23:58:36.770Z,100820.39
